sensor_id;sensor_type;location;lat;lon;timestamp;P1;durP1;ratioP1;P2;durP2;ratioP2
46411;SDS011;32113;42.012;24.870;2023-12-20T00:01:39;25.88;;;16.23;;
46411;SDS011;32113;42.012;24.870;2023-12-20T00:04:04;25.75;;;15.95;;
46411;SDS011;32113;42.012;24.870;2023-12-20T00:06:31;24.63;;;16.13;;
46411;SDS011;32113;42.012;24.870;2023-12-20T00:08:56;31.05;;;18.17;;
46411;SDS011;32113;42.012;24.870;2023-12-20T00:11:23;28.60;;;17.65;;
46411;SDS011;32113;42.012;24.870;2023-12-20T00:13:48;31.52;;;17.95;;
46411;SDS011;32113;42.012;24.870;2023-12-20T00:16:14;28.45;;;17.77;;
46411;SDS011;32113;42.012;24.870;2023-12-20T00:18:39;20.73;;;12.80;;
46411;SDS011;32113;42.012;24.870;2023-12-20T00:21:04;28.20;;;16.40;;
46411;SDS011;32113;42.012;24.870;2023-12-20T00:23:30;22.92;;;15.30;;
46411;SDS011;32113;42.012;24.870;2023-12-20T00:25:55;28.17;;;15.40;;
46411;SDS011;32113;42.012;24.870;2023-12-20T00:28:21;27.27;;;15.57;;
46411;SDS011;32113;42.012;24.870;2023-12-20T00:30:47;26.13;;;15.68;;
46411;SDS011;32113;42.012;24.870;2023-12-20T00:33:13;27.58;;;16.40;;
46411;SDS011;32113;42.012;24.870;2023-12-20T00:35:38;25.10;;;15.35;;
46411;SDS011;32113;42.012;24.870;2023-12-20T00:38:03;26.48;;;15.25;;
46411;SDS011;32113;42.012;24.870;2023-12-20T00:40:30;52.38;;;27.45;;
46411;SDS011;32113;42.012;24.870;2023-12-20T00:42:55;25.48;;;16.25;;
46411;SDS011;32113;42.012;24.870;2023-12-20T00:45:21;27.30;;;15.68;;
46411;SDS011;32113;42.012;24.870;2023-12-20T00:47:46;20.67;;;13.25;;
46411;SDS011;32113;42.012;24.870;2023-12-20T00:50:11;23.67;;;14.20;;
46411;SDS011;32113;42.012;24.870;2023-12-20T00:52:37;22.52;;;12.88;;
46411;SDS011;32113;42.012;24.870;2023-12-20T00:55:03;19.67;;;11.85;;
46411;SDS011;32113;42.012;24.870;2023-12-20T00:57:29;12.65;;;7.50;;
46411;SDS011;32113;42.012;24.870;2023-12-20T00:59:54;12.93;;;7.28;;
46411;SDS011;32113;42.012;24.870;2023-12-20T01:02:19;14.13;;;8.55;;
46411;SDS011;32113;42.012;24.870;2023-12-20T01:04:45;31.88;;;17.38;;
46411;SDS011;32113;42.012;24.870;2023-12-20T01:07:11;18.60;;;10.55;;
46411;SDS011;32113;42.012;24.870;2023-12-20T01:09:37;14.40;;;9.38;;
46411;SDS011;32113;42.012;24.870;2023-12-20T01:12:03;16.77;;;8.73;;
46411;SDS011;32113;42.012;24.870;2023-12-20T01:14:28;16.80;;;8.93;;
46411;SDS011;32113;42.012;24.870;2023-12-20T01:16:53;11.60;;;7.80;;
46411;SDS011;32113;42.012;24.870;2023-12-20T01:19:19;8.95;;;5.15;;
46411;SDS011;32113;42.012;24.870;2023-12-20T01:21:44;16.25;;;8.30;;
46411;SDS011;32113;42.012;24.870;2023-12-20T01:24:09;13.05;;;7.57;;
46411;SDS011;32113;42.012;24.870;2023-12-20T01:26:35;12.77;;;7.15;;
46411;SDS011;32113;42.012;24.870;2023-12-20T01:29:00;5.78;;;3.67;;
46411;SDS011;32113;42.012;24.870;2023-12-20T01:31:26;6.47;;;4.13;;
46411;SDS011;32113;42.012;24.870;2023-12-20T01:33:52;6.10;;;4.05;;
46411;SDS011;32113;42.012;24.870;2023-12-20T01:36:17;9.38;;;4.72;;
46411;SDS011;32113;42.012;24.870;2023-12-20T01:38:43;8.27;;;4.75;;
46411;SDS011;32113;42.012;24.870;2023-12-20T01:41:08;10.38;;;5.90;;
46411;SDS011;32113;42.012;24.870;2023-12-20T01:43:34;9.93;;;6.20;;
46411;SDS011;32113;42.012;24.870;2023-12-20T01:45:59;10.20;;;6.20;;
46411;SDS011;32113;42.012;24.870;2023-12-20T01:48:25;10.98;;;5.75;;
46411;SDS011;32113;42.012;24.870;2023-12-20T01:50:52;10.77;;;6.13;;
46411;SDS011;32113;42.012;24.870;2023-12-20T01:53:19;11.80;;;6.65;;
46411;SDS011;32113;42.012;24.870;2023-12-20T01:58:14;8.55;;;4.82;;
46411;SDS011;32113;42.012;24.870;2023-12-20T02:00:40;5.00;;;2.30;;
46411;SDS011;32113;42.012;24.870;2023-12-20T02:03:06;5.97;;;2.50;;
46411;SDS011;32113;42.012;24.870;2023-12-20T02:05:32;6.90;;;5.00;;
46411;SDS011;32113;42.012;24.870;2023-12-20T02:07:58;12.80;;;7.05;;
46411;SDS011;32113;42.012;24.870;2023-12-20T02:10:24;5.82;;;3.35;;
46411;SDS011;32113;42.012;24.870;2023-12-20T02:12:50;5.25;;;3.40;;
46411;SDS011;32113;42.012;24.870;2023-12-20T02:15:15;4.68;;;3.05;;
46411;SDS011;32113;42.012;24.870;2023-12-20T02:17:41;4.57;;;2.95;;
46411;SDS011;32113;42.012;24.870;2023-12-20T02:20:08;5.15;;;3.10;;
46411;SDS011;32113;42.012;24.870;2023-12-20T02:22:33;14.48;;;5.55;;
46411;SDS011;32113;42.012;24.870;2023-12-20T02:24:59;13.00;;;7.45;;
46411;SDS011;32113;42.012;24.870;2023-12-20T02:27:24;4.45;;;2.65;;
46411;SDS011;32113;42.012;24.870;2023-12-20T02:29:50;5.03;;;2.95;;
46411;SDS011;32113;42.012;24.870;2023-12-20T02:32:19;4.53;;;2.00;;
46411;SDS011;32113;42.012;24.870;2023-12-20T02:34:47;9.40;;;5.05;;
46411;SDS011;32113;42.012;24.870;2023-12-20T02:37:13;6.10;;;3.10;;
46411;SDS011;32113;42.012;24.870;2023-12-20T02:39:38;5.13;;;2.40;;
46411;SDS011;32113;42.012;24.870;2023-12-20T02:42:04;2.05;;;1.23;;
46411;SDS011;32113;42.012;24.870;2023-12-20T02:44:29;1.50;;;1.10;;
46411;SDS011;32113;42.012;24.870;2023-12-20T02:46:54;2.42;;;1.72;;
46411;SDS011;32113;42.012;24.870;2023-12-20T02:49:20;2.97;;;2.03;;
46411;SDS011;32113;42.012;24.870;2023-12-20T02:51:45;9.60;;;5.03;;
46411;SDS011;32113;42.012;24.870;2023-12-20T02:54:11;13.07;;;7.63;;
46411;SDS011;32113;42.012;24.870;2023-12-20T02:56:36;5.32;;;3.15;;
46411;SDS011;32113;42.012;24.870;2023-12-20T02:59:02;6.45;;;3.25;;
46411;SDS011;32113;42.012;24.870;2023-12-20T03:01:30;5.15;;;1.80;;
46411;SDS011;32113;42.012;24.870;2023-12-20T03:03:56;2.42;;;1.30;;
46411;SDS011;32113;42.012;24.870;2023-12-20T03:06:21;4.55;;;3.08;;
46411;SDS011;32113;42.012;24.870;2023-12-20T03:08:47;12.88;;;6.82;;
46411;SDS011;32113;42.012;24.870;2023-12-20T03:11:12;5.28;;;3.05;;
46411;SDS011;32113;42.012;24.870;2023-12-20T03:13:37;3.33;;;1.65;;
46411;SDS011;32113;42.012;24.870;2023-12-20T03:16:09;7.40;;;1.80;;
46411;SDS011;32113;42.012;24.870;2023-12-20T03:18:35;6.95;;;3.63;;
46411;SDS011;32113;42.012;24.870;2023-12-20T03:21:00;5.15;;;2.58;;
46411;SDS011;32113;42.012;24.870;2023-12-20T03:23:26;1.67;;;1.23;;
46411;SDS011;32113;42.012;24.870;2023-12-20T03:25:52;3.55;;;1.90;;
46411;SDS011;32113;42.012;24.870;2023-12-20T03:28:17;8.07;;;4.97;;
46411;SDS011;32113;42.012;24.870;2023-12-20T03:30:44;5.53;;;2.78;;
46411;SDS011;32113;42.012;24.870;2023-12-20T03:33:09;2.90;;;1.50;;
46411;SDS011;32113;42.012;24.870;2023-12-20T03:35:35;4.60;;;1.90;;
46411;SDS011;32113;42.012;24.870;2023-12-20T03:38:00;1.98;;;1.08;;
46411;SDS011;32113;42.012;24.870;2023-12-20T03:40:25;1.95;;;1.20;;
46411;SDS011;32113;42.012;24.870;2023-12-20T03:42:51;1.50;;;1.08;;
46411;SDS011;32113;42.012;24.870;2023-12-20T03:45:16;2.80;;;1.60;;
46411;SDS011;32113;42.012;24.870;2023-12-20T03:47:42;4.78;;;1.80;;
46411;SDS011;32113;42.012;24.870;2023-12-20T03:50:07;5.60;;;2.40;;
46411;SDS011;32113;42.012;24.870;2023-12-20T03:52:33;4.25;;;1.70;;
46411;SDS011;32113;42.012;24.870;2023-12-20T03:54:58;2.70;;;1.40;;
46411;SDS011;32113;42.012;24.870;2023-12-20T03:57:23;2.05;;;1.33;;
46411;SDS011;32113;42.012;24.870;2023-12-20T03:59:49;2.55;;;1.00;;
46411;SDS011;32113;42.012;24.870;2023-12-20T04:02:14;2.53;;;1.35;;
46411;SDS011;32113;42.012;24.870;2023-12-20T04:04:39;3.75;;;1.70;;
46411;SDS011;32113;42.012;24.870;2023-12-20T04:07:05;3.35;;;1.40;;
46411;SDS011;32113;42.012;24.870;2023-12-20T04:09:30;3.25;;;1.38;;
46411;SDS011;32113;42.012;24.870;2023-12-20T04:11:55;2.67;;;1.58;;
46411;SDS011;32113;42.012;24.870;2023-12-20T04:14:21;2.30;;;1.60;;
46411;SDS011;32113;42.012;24.870;2023-12-20T04:16:46;2.53;;;1.70;;
46411;SDS011;32113;42.012;24.870;2023-12-20T04:19:12;1.92;;;1.13;;
46411;SDS011;32113;42.012;24.870;2023-12-20T04:21:37;3.03;;;1.42;;
46411;SDS011;32113;42.012;24.870;2023-12-20T04:24:02;2.38;;;1.00;;
46411;SDS011;32113;42.012;24.870;2023-12-20T04:26:28;2.65;;;1.17;;
46411;SDS011;32113;42.012;24.870;2023-12-20T04:28:54;4.25;;;1.52;;
46411;SDS011;32113;42.012;24.870;2023-12-20T04:31:19;3.13;;;1.92;;
46411;SDS011;32113;42.012;24.870;2023-12-20T04:33:45;3.33;;;1.40;;
46411;SDS011;32113;42.012;24.870;2023-12-20T04:36:10;2.80;;;1.52;;
46411;SDS011;32113;42.012;24.870;2023-12-20T04:38:36;3.47;;;1.33;;
46411;SDS011;32113;42.012;24.870;2023-12-20T04:41:01;1.73;;;1.05;;
46411;SDS011;32113;42.012;24.870;2023-12-20T04:43:27;4.47;;;1.38;;
46411;SDS011;32113;42.012;24.870;2023-12-20T04:45:53;2.35;;;1.20;;
46411;SDS011;32113;42.012;24.870;2023-12-20T04:48:18;2.88;;;1.30;;
46411;SDS011;32113;42.012;24.870;2023-12-20T04:50:44;4.10;;;2.00;;
46411;SDS011;32113;42.012;24.870;2023-12-20T04:53:09;3.70;;;2.00;;
46411;SDS011;32113;42.012;24.870;2023-12-20T04:55:35;5.50;;;1.85;;
46411;SDS011;32113;42.012;24.870;2023-12-20T04:58:00;2.88;;;1.50;;
46411;SDS011;32113;42.012;24.870;2023-12-20T05:00:25;3.97;;;2.40;;
46411;SDS011;32113;42.012;24.870;2023-12-20T05:02:51;3.40;;;1.80;;
46411;SDS011;32113;42.012;24.870;2023-12-20T05:05:17;7.65;;;4.60;;
46411;SDS011;32113;42.012;24.870;2023-12-20T05:07:43;7.93;;;3.88;;
46411;SDS011;32113;42.012;24.870;2023-12-20T05:10:08;11.10;;;4.65;;
46411;SDS011;32113;42.012;24.870;2023-12-20T05:12:34;16.38;;;10.43;;
46411;SDS011;32113;42.012;24.870;2023-12-20T05:15:00;22.80;;;14.88;;
46411;SDS011;32113;42.012;24.870;2023-12-20T05:17:26;28.00;;;17.05;;
46411;SDS011;32113;42.012;24.870;2023-12-20T05:19:51;35.70;;;20.98;;
46411;SDS011;32113;42.012;24.870;2023-12-20T05:22:16;33.83;;;21.90;;
46411;SDS011;32113;42.012;24.870;2023-12-20T05:24:43;30.50;;;20.15;;
46411;SDS011;32113;42.012;24.870;2023-12-20T05:27:08;29.83;;;19.60;;
46411;SDS011;32113;42.012;24.870;2023-12-20T05:29:34;29.92;;;19.42;;
46411;SDS011;32113;42.012;24.870;2023-12-20T05:31:59;39.28;;;23.92;;
46411;SDS011;32113;42.012;24.870;2023-12-20T05:34:25;29.40;;;19.90;;
46411;SDS011;32113;42.012;24.870;2023-12-20T05:36:50;34.30;;;19.65;;
46411;SDS011;32113;42.012;24.870;2023-12-20T05:39:16;34.83;;;20.52;;
46411;SDS011;32113;42.012;24.870;2023-12-20T05:41:41;29.08;;;19.35;;
46411;SDS011;32113;42.012;24.870;2023-12-20T05:44:06;36.38;;;22.05;;
46411;SDS011;32113;42.012;24.870;2023-12-20T05:46:32;49.15;;;26.42;;
46411;SDS011;32113;42.012;24.870;2023-12-20T05:48:57;35.75;;;22.73;;
46411;SDS011;32113;42.012;24.870;2023-12-20T05:51:23;42.60;;;26.50;;
46411;SDS011;32113;42.012;24.870;2023-12-20T05:53:48;58.38;;;31.02;;
46411;SDS011;32113;42.012;24.870;2023-12-20T05:56:15;38.53;;;23.90;;
46411;SDS011;32113;42.012;24.870;2023-12-20T05:58:40;38.80;;;19.90;;
46411;SDS011;32113;42.012;24.870;2023-12-20T06:01:06;34.85;;;18.75;;
46411;SDS011;32113;42.012;24.870;2023-12-20T06:03:33;32.83;;;18.40;;
46411;SDS011;32113;42.012;24.870;2023-12-20T06:05:59;45.55;;;25.50;;
46411;SDS011;32113;42.012;24.870;2023-12-20T06:08:25;46.97;;;27.10;;
46411;SDS011;32113;42.012;24.870;2023-12-20T06:10:51;54.95;;;33.22;;
46411;SDS011;32113;42.012;24.870;2023-12-20T06:13:16;54.20;;;33.90;;
46411;SDS011;32113;42.012;24.870;2023-12-20T06:15:42;54.15;;;33.35;;
46411;SDS011;32113;42.012;24.870;2023-12-20T06:18:07;52.42;;;32.17;;
46411;SDS011;32113;42.012;24.870;2023-12-20T06:20:33;50.42;;;30.58;;
46411;SDS011;32113;42.012;24.870;2023-12-20T06:22:58;65.53;;;32.40;;
46411;SDS011;32113;42.012;24.870;2023-12-20T06:25:23;57.03;;;32.45;;
46411;SDS011;32113;42.012;24.870;2023-12-20T06:27:49;56.83;;;32.85;;
46411;SDS011;32113;42.012;24.870;2023-12-20T06:30:15;53.67;;;31.75;;
46411;SDS011;32113;42.012;24.870;2023-12-20T06:32:41;63.40;;;31.63;;
46411;SDS011;32113;42.012;24.870;2023-12-20T06:35:07;56.60;;;30.50;;
46411;SDS011;32113;42.012;24.870;2023-12-20T06:37:34;49.85;;;27.90;;
46411;SDS011;32113;42.012;24.870;2023-12-20T06:40:00;49.92;;;27.00;;
46411;SDS011;32113;42.012;24.870;2023-12-20T06:42:26;48.83;;;27.40;;
46411;SDS011;32113;42.012;24.870;2023-12-20T06:44:51;46.60;;;26.20;;
46411;SDS011;32113;42.012;24.870;2023-12-20T06:47:17;60.00;;;30.85;;
46411;SDS011;32113;42.012;24.870;2023-12-20T06:49:42;48.75;;;29.10;;
46411;SDS011;32113;42.012;24.870;2023-12-20T06:52:08;54.38;;;31.67;;
46411;SDS011;32113;42.012;24.870;2023-12-20T06:54:33;66.70;;;40.42;;
46411;SDS011;32113;42.012;24.870;2023-12-20T06:56:59;79.60;;;43.45;;
46411;SDS011;32113;42.012;24.870;2023-12-20T06:59:25;74.70;;;43.33;;
46411;SDS011;32113;42.012;24.870;2023-12-20T07:01:51;76.30;;;43.78;;
46411;SDS011;32113;42.012;24.870;2023-12-20T07:04:16;74.45;;;41.63;;
46411;SDS011;32113;42.012;24.870;2023-12-20T07:06:46;76.88;;;47.67;;
46411;SDS011;32113;42.012;24.870;2023-12-20T07:09:13;66.57;;;41.13;;
46411;SDS011;32113;42.012;24.870;2023-12-20T07:11:39;55.03;;;34.40;;
46411;SDS011;32113;42.012;24.870;2023-12-20T07:14:04;51.38;;;31.10;;
46411;SDS011;32113;42.012;24.870;2023-12-20T07:16:29;55.03;;;32.63;;
46411;SDS011;32113;42.012;24.870;2023-12-20T07:18:55;60.55;;;32.95;;
46411;SDS011;32113;42.012;24.870;2023-12-20T07:21:22;57.65;;;35.28;;
46411;SDS011;32113;42.012;24.870;2023-12-20T07:23:47;63.22;;;36.30;;
46411;SDS011;32113;42.012;24.870;2023-12-20T07:26:13;63.40;;;35.60;;
46411;SDS011;32113;42.012;24.870;2023-12-20T07:28:38;52.65;;;32.00;;
46411;SDS011;32113;42.012;24.870;2023-12-20T07:31:03;58.72;;;34.13;;
46411;SDS011;32113;42.012;24.870;2023-12-20T07:33:29;63.75;;;37.58;;
46411;SDS011;32113;42.012;24.870;2023-12-20T07:35:55;60.97;;;36.03;;
46411;SDS011;32113;42.012;24.870;2023-12-20T07:38:20;58.35;;;34.55;;
46411;SDS011;32113;42.012;24.870;2023-12-20T07:40:45;52.85;;;32.92;;
46411;SDS011;32113;42.012;24.870;2023-12-20T07:43:11;61.38;;;33.35;;
46411;SDS011;32113;42.012;24.870;2023-12-20T07:45:36;63.03;;;36.10;;
46411;SDS011;32113;42.012;24.870;2023-12-20T07:48:03;67.35;;;40.13;;
46411;SDS011;32113;42.012;24.870;2023-12-20T07:50:29;56.53;;;34.92;;
46411;SDS011;32113;42.012;24.870;2023-12-20T07:52:54;53.83;;;32.13;;
46411;SDS011;32113;42.012;24.870;2023-12-20T07:55:20;49.72;;;28.50;;
46411;SDS011;32113;42.012;24.870;2023-12-20T07:57:45;49.05;;;28.88;;
46411;SDS011;32113;42.012;24.870;2023-12-20T08:00:11;51.80;;;28.92;;
46411;SDS011;32113;42.012;24.870;2023-12-20T08:02:37;51.25;;;34.13;;
46411;SDS011;32113;42.012;24.870;2023-12-20T08:05:03;59.28;;;32.92;;
46411;SDS011;32113;42.012;24.870;2023-12-20T08:07:28;45.25;;;29.48;;
46411;SDS011;32113;42.012;24.870;2023-12-20T08:09:54;52.17;;;28.02;;
46411;SDS011;32113;42.012;24.870;2023-12-20T08:12:21;41.80;;;22.73;;
46411;SDS011;32113;42.012;24.870;2023-12-20T08:14:46;32.95;;;19.95;;
46411;SDS011;32113;42.012;24.870;2023-12-20T08:17:12;40.83;;;22.02;;
46411;SDS011;32113;42.012;24.870;2023-12-20T08:19:37;34.30;;;21.92;;
46411;SDS011;32113;42.012;24.870;2023-12-20T08:22:03;40.13;;;22.60;;
46411;SDS011;32113;42.012;24.870;2023-12-20T08:24:29;38.92;;;23.50;;
46411;SDS011;32113;42.012;24.870;2023-12-20T08:26:55;51.42;;;27.15;;
46411;SDS011;32113;42.012;24.870;2023-12-20T08:29:20;41.92;;;24.52;;
46411;SDS011;32113;42.012;24.870;2023-12-20T08:31:46;40.88;;;23.52;;
46411;SDS011;32113;42.012;24.870;2023-12-20T08:34:11;49.17;;;27.08;;
46411;SDS011;32113;42.012;24.870;2023-12-20T08:36:39;39.55;;;24.35;;
46411;SDS011;32113;42.012;24.870;2023-12-20T08:39:04;42.08;;;21.35;;
46411;SDS011;32113;42.012;24.870;2023-12-20T08:41:32;32.63;;;20.52;;
46411;SDS011;32113;42.012;24.870;2023-12-20T08:43:57;29.38;;;18.48;;
46411;SDS011;32113;42.012;24.870;2023-12-20T08:46:23;33.83;;;18.48;;
46411;SDS011;32113;42.012;24.870;2023-12-20T08:48:48;33.70;;;17.30;;
46411;SDS011;32113;42.012;24.870;2023-12-20T08:51:14;28.42;;;17.60;;
46411;SDS011;32113;42.012;24.870;2023-12-20T08:53:39;28.67;;;15.75;;
46411;SDS011;32113;42.012;24.870;2023-12-20T08:56:04;31.50;;;17.83;;
46411;SDS011;32113;42.012;24.870;2023-12-20T08:58:30;39.35;;;18.63;;
46411;SDS011;32113;42.012;24.870;2023-12-20T09:00:55;38.60;;;17.95;;
46411;SDS011;32113;42.012;24.870;2023-12-20T09:03:22;32.83;;;17.42;;
46411;SDS011;32113;42.012;24.870;2023-12-20T09:05:47;35.08;;;18.55;;
46411;SDS011;32113;42.012;24.870;2023-12-20T09:08:13;32.25;;;16.92;;
46411;SDS011;32113;42.012;24.870;2023-12-20T09:10:38;32.42;;;17.85;;
46411;SDS011;32113;42.012;24.870;2023-12-20T09:13:03;32.17;;;17.00;;
46411;SDS011;32113;42.012;24.870;2023-12-20T09:15:29;31.08;;;17.25;;
46411;SDS011;32113;42.012;24.870;2023-12-20T09:17:55;30.10;;;17.52;;
46411;SDS011;32113;42.012;24.870;2023-12-20T09:20:21;31.15;;;16.73;;
46411;SDS011;32113;42.012;24.870;2023-12-20T09:22:48;29.58;;;16.58;;
46411;SDS011;32113;42.012;24.870;2023-12-20T09:25:14;34.72;;;17.90;;
46411;SDS011;32113;42.012;24.870;2023-12-20T09:27:40;31.48;;;19.05;;
46411;SDS011;32113;42.012;24.870;2023-12-20T09:30:06;39.47;;;19.85;;
46411;SDS011;32113;42.012;24.870;2023-12-20T09:32:32;33.25;;;18.15;;
46411;SDS011;32113;42.012;24.870;2023-12-20T09:34:57;37.50;;;16.90;;
46411;SDS011;32113;42.012;24.870;2023-12-20T09:37:25;25.23;;;16.30;;
46411;SDS011;32113;42.012;24.870;2023-12-20T09:39:51;32.17;;;18.58;;
46411;SDS011;32113;42.012;24.870;2023-12-20T09:42:19;31.48;;;16.75;;
46411;SDS011;32113;42.012;24.870;2023-12-20T09:44:56;36.33;;;17.60;;
46411;SDS011;32113;42.012;24.870;2023-12-20T09:47:26;33.30;;;16.48;;
46411;SDS011;32113;42.012;24.870;2023-12-20T09:49:52;25.42;;;15.60;;
46411;SDS011;32113;42.012;24.870;2023-12-20T09:52:18;31.08;;;15.07;;
46411;SDS011;32113;42.012;24.870;2023-12-20T09:54:45;29.13;;;15.93;;
46411;SDS011;32113;42.012;24.870;2023-12-20T09:57:14;27.92;;;15.07;;
46411;SDS011;32113;42.012;24.870;2023-12-20T09:59:40;21.23;;;13.68;;
46411;SDS011;32113;42.012;24.870;2023-12-20T10:02:06;23.58;;;13.13;;
46411;SDS011;32113;42.012;24.870;2023-12-20T10:04:37;21.58;;;12.50;;
46411;SDS011;32113;42.012;24.870;2023-12-20T10:07:07;19.67;;;12.32;;
46411;SDS011;32113;42.012;24.870;2023-12-20T10:09:33;22.60;;;12.32;;
46411;SDS011;32113;42.012;24.870;2023-12-20T10:11:59;27.83;;;14.23;;
46411;SDS011;32113;42.012;24.870;2023-12-20T10:14:25;27.67;;;14.20;;
46411;SDS011;32113;42.012;24.870;2023-12-20T10:16:50;29.33;;;15.93;;
46411;SDS011;32113;42.012;24.870;2023-12-20T10:19:19;32.60;;;17.63;;
46411;SDS011;32113;42.012;24.870;2023-12-20T10:21:44;19.90;;;12.15;;
46411;SDS011;32113;42.012;24.870;2023-12-20T10:24:11;22.73;;;12.90;;
46411;SDS011;32113;42.012;24.870;2023-12-20T10:26:42;26.70;;;15.15;;
46411;SDS011;32113;42.012;24.870;2023-12-20T10:29:07;34.72;;;17.20;;
46411;SDS011;32113;42.012;24.870;2023-12-20T10:31:33;44.63;;;20.77;;
46411;SDS011;32113;42.012;24.870;2023-12-20T10:34:00;25.17;;;15.05;;
46411;SDS011;32113;42.012;24.870;2023-12-20T10:36:26;25.95;;;15.30;;
46411;SDS011;32113;42.012;24.870;2023-12-20T10:38:53;29.35;;;14.00;;
46411;SDS011;32113;42.012;24.870;2023-12-20T10:41:24;26.83;;;14.65;;
46411;SDS011;32113;42.012;24.870;2023-12-20T10:43:51;20.98;;;14.00;;
46411;SDS011;32113;42.012;24.870;2023-12-20T10:46:17;27.48;;;14.35;;
46411;SDS011;32113;42.012;24.870;2023-12-20T10:48:44;21.88;;;14.02;;
46411;SDS011;32113;42.012;24.870;2023-12-20T10:51:11;22.53;;;13.90;;
46411;SDS011;32113;42.012;24.870;2023-12-20T10:53:42;28.95;;;14.00;;
46411;SDS011;32113;42.012;24.870;2023-12-20T10:56:08;22.02;;;15.77;;
46411;SDS011;32113;42.012;24.870;2023-12-20T10:58:40;23.20;;;14.73;;
46411;SDS011;32113;42.012;24.870;2023-12-20T11:01:08;28.05;;;15.35;;
46411;SDS011;32113;42.012;24.870;2023-12-20T11:03:34;35.28;;;23.00;;
46411;SDS011;32113;42.012;24.870;2023-12-20T11:11:26;32.95;;;18.65;;
46411;SDS011;32113;42.012;24.870;2023-12-20T11:16:40;33.17;;;17.67;;
46411;SDS011;32113;42.012;24.870;2023-12-20T11:19:06;33.97;;;18.13;;
46411;SDS011;32113;42.012;24.870;2023-12-20T11:21:31;27.10;;;18.23;;
46411;SDS011;32113;42.012;24.870;2023-12-20T11:23:57;25.58;;;16.95;;
46411;SDS011;32113;42.012;24.870;2023-12-20T11:26:23;25.00;;;17.77;;
46411;SDS011;32113;42.012;24.870;2023-12-20T11:28:53;28.83;;;17.13;;
46411;SDS011;32113;42.012;24.870;2023-12-20T11:31:19;35.47;;;17.75;;
46411;SDS011;32113;42.012;24.870;2023-12-20T11:33:44;33.78;;;16.92;;
46411;SDS011;32113;42.012;24.870;2023-12-20T11:36:15;24.67;;;16.75;;
46411;SDS011;32113;42.012;24.870;2023-12-20T11:38:56;39.00;;;16.42;;
46411;SDS011;32113;42.012;24.870;2023-12-20T11:41:26;29.20;;;16.33;;
46411;SDS011;32113;42.012;24.870;2023-12-20T11:43:54;26.50;;;15.07;;
46411;SDS011;32113;42.012;24.870;2023-12-20T11:46:21;30.05;;;15.65;;
46411;SDS011;32113;42.012;24.870;2023-12-20T11:48:47;32.92;;;17.35;;
46411;SDS011;32113;42.012;24.870;2023-12-20T11:51:13;26.67;;;17.15;;
46411;SDS011;32113;42.012;24.870;2023-12-20T11:53:39;26.50;;;15.15;;
46411;SDS011;32113;42.012;24.870;2023-12-20T11:56:07;22.25;;;13.48;;
46411;SDS011;32113;42.012;24.870;2023-12-20T11:58:33;21.17;;;12.63;;
46411;SDS011;32113;42.012;24.870;2023-12-20T12:01:00;23.83;;;13.93;;
46411;SDS011;32113;42.012;24.870;2023-12-20T12:03:27;26.85;;;13.73;;
46411;SDS011;32113;42.012;24.870;2023-12-20T12:05:52;30.95;;;15.18;;
46411;SDS011;32113;42.012;24.870;2023-12-20T12:08:18;28.05;;;13.57;;
46411;SDS011;32113;42.012;24.870;2023-12-20T12:10:44;21.20;;;14.02;;
46411;SDS011;32113;42.012;24.870;2023-12-20T12:13:10;21.20;;;13.30;;
46411;SDS011;32113;42.012;24.870;2023-12-20T12:15:36;28.60;;;14.85;;
46411;SDS011;32113;42.012;24.870;2023-12-20T12:18:02;28.63;;;14.57;;
46411;SDS011;32113;42.012;24.870;2023-12-20T12:20:28;28.90;;;16.45;;
46411;SDS011;32113;42.012;24.870;2023-12-20T12:22:58;30.55;;;16.35;;
46411;SDS011;32113;42.012;24.870;2023-12-20T12:25:28;30.42;;;15.50;;
46411;SDS011;32113;42.012;24.870;2023-12-20T12:27:55;24.52;;;15.38;;
46411;SDS011;32113;42.012;24.870;2023-12-20T12:30:21;20.83;;;13.82;;
46411;SDS011;32113;42.012;24.870;2023-12-20T12:32:47;22.25;;;14.15;;
46411;SDS011;32113;42.012;24.870;2023-12-20T12:35:13;28.50;;;16.48;;
46411;SDS011;32113;42.012;24.870;2023-12-20T12:37:39;25.75;;;15.40;;
46411;SDS011;32113;42.012;24.870;2023-12-20T12:40:06;34.47;;;18.45;;
46411;SDS011;32113;42.012;24.870;2023-12-20T12:42:41;28.33;;;17.58;;
46411;SDS011;32113;42.012;24.870;2023-12-20T12:45:07;25.73;;;16.98;;
46411;SDS011;32113;42.012;24.870;2023-12-20T12:47:33;26.02;;;17.67;;
46411;SDS011;32113;42.012;24.870;2023-12-20T12:49:59;29.05;;;16.30;;
46411;SDS011;32113;42.012;24.870;2023-12-20T12:52:25;29.65;;;18.13;;
46411;SDS011;32113;42.012;24.870;2023-12-20T12:54:52;35.42;;;19.02;;
46411;SDS011;32113;42.012;24.870;2023-12-20T12:57:18;29.25;;;18.38;;
46411;SDS011;32113;42.012;24.870;2023-12-20T12:59:44;32.97;;;19.20;;
46411;SDS011;32113;42.012;24.870;2023-12-20T13:02:13;27.40;;;16.90;;
46411;SDS011;32113;42.012;24.870;2023-12-20T13:04:39;31.05;;;18.08;;
46411;SDS011;32113;42.012;24.870;2023-12-20T13:07:05;29.15;;;17.13;;
46411;SDS011;32113;42.012;24.870;2023-12-20T13:09:30;25.70;;;16.48;;
46411;SDS011;32113;42.012;24.870;2023-12-20T13:11:56;33.20;;;17.38;;
46411;SDS011;32113;42.012;24.870;2023-12-20T13:14:22;30.88;;;19.02;;
46411;SDS011;32113;42.012;24.870;2023-12-20T13:16:47;31.88;;;18.42;;
46411;SDS011;32113;42.012;24.870;2023-12-20T13:19:13;36.88;;;19.42;;
46411;SDS011;32113;42.012;24.870;2023-12-20T13:21:38;31.35;;;17.90;;
46411;SDS011;32113;42.012;24.870;2023-12-20T13:24:04;30.35;;;17.15;;
46411;SDS011;32113;42.012;24.870;2023-12-20T13:26:30;28.20;;;17.95;;
46411;SDS011;32113;42.012;24.870;2023-12-20T13:28:55;29.98;;;18.45;;
46411;SDS011;32113;42.012;24.870;2023-12-20T13:31:21;42.28;;;21.45;;
46411;SDS011;32113;42.012;24.870;2023-12-20T13:33:46;35.45;;;22.83;;
46411;SDS011;32113;42.012;24.870;2023-12-20T13:36:12;43.70;;;22.17;;
46411;SDS011;32113;42.012;24.870;2023-12-20T13:38:38;36.95;;;22.05;;
46411;SDS011;32113;42.012;24.870;2023-12-20T13:41:04;43.85;;;23.85;;
46411;SDS011;32113;42.012;24.870;2023-12-20T13:43:30;38.55;;;23.17;;
46411;SDS011;32113;42.012;24.870;2023-12-20T13:48:23;39.25;;;22.58;;
46411;SDS011;32113;42.012;24.870;2023-12-20T13:50:48;43.60;;;24.38;;
46411;SDS011;32113;42.012;24.870;2023-12-20T13:53:13;38.22;;;24.40;;
46411;SDS011;32113;42.012;24.870;2023-12-20T13:55:39;40.90;;;25.20;;
46411;SDS011;32113;42.012;24.870;2023-12-20T13:58:05;43.60;;;25.67;;
46411;SDS011;32113;42.012;24.870;2023-12-20T14:00:30;45.03;;;25.50;;
46411;SDS011;32113;42.012;24.870;2023-12-20T14:02:56;38.65;;;24.98;;
46411;SDS011;32113;42.012;24.870;2023-12-20T14:05:21;38.42;;;22.58;;
46411;SDS011;32113;42.012;24.870;2023-12-20T14:07:48;34.20;;;21.65;;
46411;SDS011;32113;42.012;24.870;2023-12-20T14:10:14;36.30;;;20.25;;
46411;SDS011;32113;42.012;24.870;2023-12-20T14:12:39;37.72;;;18.58;;
46411;SDS011;32113;42.012;24.870;2023-12-20T14:15:05;36.08;;;20.17;;
46411;SDS011;32113;42.012;24.870;2023-12-20T14:17:37;35.58;;;18.45;;
46411;SDS011;32113;42.012;24.870;2023-12-20T14:20:04;31.65;;;18.42;;
46411;SDS011;32113;42.012;24.870;2023-12-20T14:22:31;31.70;;;20.35;;